Time;durP1;ratioP1;P1;durP2;ratioP2;P2;SDS_P1;SDS_P2;PMS_P1;PMS_P2;Temp;Humidity;BMP_temperature;BMP_pressure;BME280_temperature;BME280_humidity;BME280_pressure;Samples;Min_cycle;Max_cycle;Signal;HPM_P1;HPM_P2
2023/05/18 00:01:18;;;;;;;14.02;5.70;;;6.10;21.80;;;;;;5064490;23;20529;-66
2023/05/18 00:03:44;;;;;;;17.15;5.55;;;6.00;20.00;;;;;;5088096;23;20123;-76
2023/05/18 00:06:10;;;;;;;14.18;6.00;;;6.00;20.10;;;;;;5070849;23;20071;-66
2023/05/18 00:08:36;;;;;;;15.52;5.97;;;6.00;18.80;;;;;;5064986;23;20134;-77
2023/05/18 00:11:02;;;;;;;17.65;6.10;;;5.90;20.20;;;;;;5053361;28;20171;-76
2023/05/18 00:13:29;;;;;;;13.43;6.00;;;5.90;26.80;;;;;;5093068;23;20486;-64
2023/05/18 00:15:55;;;;;;;15.77;5.85;;;5.80;30.90;;;;;;5064793;23;20413;-74
2023/05/18 00:18:22;;;;;;;15.60;6.65;;;5.80;34.60;;;;;;5127440;23;20049;-70
2023/05/18 00:20:50;;;;;;;20.35;6.40;;;5.80;39.20;;;;;;5058287;23;20110;-67
2023/05/18 00:23:16;;;;;;;13.70;6.53;;;5.90;47.70;;;;;;5093412;23;20136;-73
2023/05/18 00:28:16;;;;;;;14.32;6.70;;;6.00;30.70;;;;;;4401621;22;20044;-73
2023/05/18 00:30:42;;;;;;;13.60;6.38;;;6.10;31.00;;;;;;5128454;22;20404;-65
2023/05/18 00:35:36;;;;;;;16.58;6.60;;;6.00;25.20;;;;;;5094450;28;20036;-73
2023/05/18 00:40:38;;;;;;;19.10;6.07;;;6.00;28.00;;;;;;5082457;22;20096;-76
2023/05/18 00:43:04;;;;;;;14.93;6.38;;;5.90;28.50;;;;;;5097507;22;20056;-68
2023/05/18 00:45:30;;;;;;;12.18;5.63;;;5.90;28.70;;;;;;5112611;22;20088;-74
2023/05/18 00:47:55;;;;;;;15.32;6.13;;;6.00;23.30;;;;;;5103997;22;20092;-66
2023/05/18 00:50:47;;;;;;;21.15;6.55;;;6.00;23.50;;;;;;5102393;22;20716;-74
2023/05/18 00:55:41;;;;;;;18.10;6.45;;;5.90;26.50;;;;;;5116032;22;20052;-73
2023/05/18 00:58:07;;;;;;;26.02;6.40;;;6.00;24.10;;;;;;5094549;23;20024;-63
2023/05/18 01:00:36;;;;;;;14.63;6.53;;;5.90;27.20;;;;;;5077586;22;20052;-63
2023/05/18 01:03:02;;;;;;;18.30;6.50;;;5.90;24.70;;;;;;5137502;22;20069;-66
2023/05/18 01:05:28;;;;;;;16.13;6.18;;;6.00;19.70;;;;;;5054003;28;20052;-63
2023/05/18 01:07:55;;;;;;;14.75;7.03;;;6.00;15.80;;;;;;5102480;22;20057;-73
2023/05/18 01:13:01;;;;;;;16.40;6.38;;;5.90;18.60;;;;;;5109789;22;20190;-76
2023/05/18 01:18:21;;;;;;;18.30;6.45;;;5.90;11.20;;;;;;5074002;23;20048;-67
2023/05/18 01:23:35;;;;;;;20.48;7.05;;;5.80;16.80;;;;;;5033473;28;20049;-65
2023/05/18 01:26:15;;;;;;;18.10;8.18;;;5.80;22.00;;;;;;5120351;22;20477;-68
2023/05/18 01:31:20;;;;;;;16.52;6.60;;;5.60;27.60;;;;;;5058110;23;20099;-74
2023/05/18 01:33:45;;;;;;;17.35;7.00;;;5.60;31.40;;;;;;5123201;22;20049;-63
2023/05/18 01:38:47;;;;;;;21.83;7.45;;;5.50;40.60;;;;;;3486822;22;20091;-68
2023/05/18 01:46:52;;;;;;;14.98;7.28;;;5.60;35.40;;;;;;5095158;23;20052;-75
2023/05/18 01:54:53;;;;;;;18.85;7.88;;;5.50;30.90;;;;;;5076144;23;20055;-65
2023/05/18 02:00:08;;;;;;;14.90;7.85;;;5.50;40.30;;;;;;3756773;22;20065;-76
2023/05/18 02:02:33;;;;;;;22.95;7.82;;;5.50;44.70;;;;;;5150450;22;20057;-73
2023/05/18 02:04:59;;;;;;;16.88;7.97;;;5.40;41.10;;;;;;5075024;23;20045;-73
2023/05/18 02:07:25;;;;;;;21.13;7.80;;;5.40;41.40;;;;;;5116396;22;20185;-69
2023/05/18 02:12:59;;;;;;;19.75;7.60;;;5.40;43.10;;;;;;5104900;22;20184;-79
2023/05/18 02:15:25;;;;;;;16.10;7.82;;;5.30;45.80;;;;;;5126931;22;20032;-78
2023/05/18 02:17:50;;;;;;;22.42;7.82;;;5.30;52.70;;;;;;5103300;22;20452;-65
2023/05/18 02:20:17;;;;;;;17.92;7.38;;;5.20;62.50;;;;;;5121261;22;20051;-76
2023/05/18 02:22:43;;;;;;;21.05;7.57;;;5.20;68.50;;;;;;5014616;28;20398;-76
2023/05/18 02:25:09;;;;;;;22.52;7.47;;;5.10;80.80;;;;;;5094890;22;20061;-64
2023/05/18 02:30:11;;;;;;;23.23;8.13;;;5.10;88.90;;;;;;4775974;23;20049;-64
2023/05/18 02:32:37;;;;;;;22.42;9.00;;;5.00;92.50;;;;;;5124191;22;20106;-81
2023/05/18 02:37:41;;;;;;;19.92;7.70;;;5.00;96.60;;;;;;3315215;22;20122;-73
2023/05/18 02:40:09;;;;;;;19.63;7.65;;;5.00;99.80;;;;;;5086641;23;20059;-65
2023/05/18 02:42:38;;;;;;;18.23;7.65;;;5.00;99.60;;;;;;5052851;28;20124;-65
2023/05/18 02:47:31;;;;;;;15.48;7.60;;;4.90;99.90;;;;;;5056167;23;20107;-68
2023/05/18 02:49:57;;;;;;;13.57;7.65;;;4.90;99.90;;;;;;5128525;22;20053;-73
2023/05/18 02:52:23;;;;;;;24.33;7.93;;;4.90;99.90;;;;;;5078119;23;20118;-77
2023/05/18 02:54:48;;;;;;;18.88;8.45;;;4.90;99.90;;;;;;5091587;22;20032;-75
2023/05/18 02:57:14;;;;;;;22.55;7.97;;;4.90;99.90;;;;;;5095077;22;20001;-78
2023/05/18 02:59:40;;;;;;;23.20;8.57;;;4.90;99.90;;;;;;5062597;22;20163;-79
2023/05/18 03:02:06;;;;;;;18.77;8.82;;;4.80;99.90;;;;;;5076352;22;20044;-75
2023/05/18 03:04:32;;;;;;;26.67;8.90;;;4.80;99.90;;;;;;5092247;23;20062;-74
2023/05/18 03:09:29;;;;;;;21.90;8.63;;;4.70;99.90;;;;;;5056661;22;20069;-66
2023/05/18 03:14:22;;;;;;;19.55;8.30;;;4.60;99.90;;;;;;5050642;28;20049;-67
2023/05/18 03:16:52;;;;;;;22.60;8.57;;;4.60;99.90;;;;;;5130376;22;20048;-77
2023/05/18 03:19:18;;;;;;;22.45;8.38;;;4.60;99.90;;;;;;5077294;22;20029;-78
2023/05/18 03:21:44;;;;;;;19.35;8.68;;;4.60;99.90;;;;;;5058141;22;20041;-78
2023/05/18 03:24:13;;;;;;;20.70;8.15;;;4.60;99.90;;;;;;5072056;22;20057;-76
2023/05/18 03:29:14;;;;;;;22.95;7.93;;;4.60;99.90;;;;;;3936506;22;20425;-79
2023/05/18 03:31:40;;;;;;;24.73;9.70;;;4.60;99.90;;;;;;5075479;22;20013;-78
2023/05/18 03:34:05;;;;;;;18.20;8.43;;;4.60;99.90;;;;;;5084891;22;20052;-78
2023/05/18 03:37:03;;;;;;;21.30;8.90;;;4.60;99.90;;;;;;5220512;22;20053;-67
2023/05/18 03:39:39;;;;;;;23.67;9.68;;;4.60;99.90;;;;;;5054080;28;20052;-68
2023/05/18 03:42:05;;;;;;;21.83;9.38;;;4.60;99.90;;;;;;5062196;22;20048;-64
2023/05/18 03:47:14;;;;;;;19.05;9.18;;;4.70;99.90;;;;;;5056544;22;20064;-79
2023/05/18 03:49:39;;;;;;;25.40;8.60;;;4.70;99.90;;;;;;5095668;22;20090;-68
2023/05/18 03:52:05;;;;;;;24.88;9.10;;;4.70;99.90;;;;;;5105245;22;20024;-79
2023/05/18 03:54:31;;;;;;;21.40;8.65;;;4.70;99.90;;;;;;5119424;22;20053;-74
2023/05/18 03:56:57;;;;;;;23.20;10.23;;;4.70;99.90;;;;;;5094032;22;20086;-68
2023/05/18 04:02:45;;;;;;;22.77;9.43;;;4.80;99.90;;;;;;5130370;22;20064;-73
2023/05/18 04:05:11;;;;;;;22.13;8.85;;;4.90;99.90;;;;;;5092676;22;20032;-67
2023/05/18 04:07:42;;;;;;;17.38;9.32;;;4.90;99.90;;;;;;5100118;22;20056;-75
2023/05/18 04:10:06;;;;;;;17.10;8.55;;;4.90;99.90;;;;;;5081032;22;20048;-78
2023/05/18 04:12:32;;;;;;;19.85;8.60;;;4.90;99.90;;;;;;5098109;22;20053;-68
2023/05/18 04:14:58;;;;;;;22.48;9.40;;;4.90;99.90;;;;;;5135895;22;20414;-75
2023/05/18 04:20:12;;;;;;;18.02;9.55;;;5.00;99.90;;;;;;5056921;22;20417;-63
2023/05/18 04:22:46;;;;;;;22.02;9.18;;;5.10;99.90;;;;;;5129653;22;20049;-77
2023/05/18 04:25:14;;;;;;;21.02;8.68;;;5.10;99.90;;;;;;5102543;22;20145;-66
2023/05/18 04:27:41;;;;;;;19.63;9.00;;;5.20;99.90;;;;;;5115908;22;20107;-79
2023/05/18 04:32:41;;;;;;;18.23;8.50;;;5.40;99.90;;;;;;5078201;23;20095;-72
2023/05/18 04:41:06;;;;;;;17.40;6.80;;;7.60;1.00;;;;;;5089490;23;20053;-65
2023/05/18 04:46:00;;;;;;;16.50;5.85;;;9.00;99.90;;;;;;5052359;23;20106;-77
2023/05/18 04:48:28;;;;;;;13.50;5.80;;;9.80;1.00;;;;;;5150253;22;20452;-73
2023/05/18 04:53:22;;;;;;;13.95;5.22;;;10.80;91.30;;;;;;5106069;23;20346;-68
2023/05/18 04:56:19;;;;;;;13.25;5.63;;;11.00;1.00;;;;;;5116699;22;20061;-78
2023/05/18 04:58:46;;;;;;;15.85;5.53;;;10.90;1.00;;;;;;4992779;28;20050;-63
2023/05/18 05:03:41;;;;;;;14.02;5.68;;;10.20;99.90;;;;;;5014366;28;20061;-64
2023/05/18 05:06:07;;;;;;;14.20;5.47;;;10.00;1.00;;;;;;5075615;22;20394;-73
2023/05/18 05:11:08;;;;;;;11.77;6.22;;;9.20;99.90;;;;;;4571335;22;20077;-66
2023/05/18 05:13:34;;;;;;;16.42;6.40;;;8.70;1.00;;;;;;5078269;22;20088;-77
2023/05/18 05:16:00;;;;;;;14.02;6.75;;;8.60;99.90;;;;;;5022931;23;20045;-77
2023/05/18 05:18:26;;;;;;;12.63;5.75;;;8.40;99.90;;;;;;5111579;22;20149;-74
2023/05/18 05:23:22;;;;;;;14.00;6.38;;;8.40;99.90;;;;;;5060171;22;20058;-67
2023/05/18 05:28:19;;;;;;;17.02;6.20;;;8.70;99.90;;;;;;5072660;28;20405;-64
2023/05/18 05:30:46;;;;;;;13.27;5.80;;;8.70;99.90;;;;;;5129016;22;20058;-77
2023/05/18 05:33:11;;;;;;;9.90;4.90;;;9.50;1.00;;;;;;5051787;22;20038;-75
2023/05/18 05:35:37;;;;;;;10.68;4.82;;;10.80;15.50;;;;;;5069044;23;20084;-79
2023/05/18 05:43:09;;;;;;;10.93;4.13;;;14.50;99.90;;;;;;5105647;22;20081;-64
2023/05/18 05:53:12;;;;;;;10.18;3.83;;;15.50;1.00;;;;;;5052768;28;20086;-76
2023/05/18 05:55:40;;;;;;;14.38;4.15;;;16.30;1.00;;;;;;5108058;22;20044;-68
2023/05/18 06:00:33;;;;;;;10.02;3.50;;;16.40;99.90;;;;;;5071753;28;20044;-67
2023/05/18 06:02:59;;;;;;;12.23;3.80;;;16.50;99.90;;;;;;5071930;23;1038618;-76
2023/05/18 06:05:25;;;;;;;10.48;4.28;;;16.50;99.90;;;;;;5088355;23;20124;-76
2023/05/18 06:07:50;;;;;;;10.95;4.15;;;16.90;99.90;;;;;;5135035;23;20044;-76
2023/05/18 06:12:56;;;;;;;11.32;4.13;;;15.80;99.90;;;;;;5075052;23;20045;-63
2023/05/18 06:15:22;;;;;;;13.68;3.83;;;16.00;99.90;;;;;;5119961;23;20069;-78
2023/05/18 06:17:48;;;;;;;7.50;3.17;;;16.30;99.90;;;;;;5021426;23;20058;-78
2023/05/18 06:20:13;;;;;;;10.45;3.63;;;16.80;99.90;;;;;;5088315;22;20110;-69
2023/05/18 06:22:39;;;;;;;12.68;3.92;;;16.20;99.90;;;;;;5100543;22;20135;-76
2023/05/18 06:30:06;;;;;;;8.80;3.63;;;16.30;99.90;;;;;;5086246;22;20053;-64
2023/05/18 06:32:32;;;;;;;14.15;4.10;;;16.70;99.90;;;;;;5092915;22;20057;-73
2023/05/18 06:34:57;;;;;;;9.93;3.58;;;15.70;99.90;;;;;;5061405;22;20137;-73
2023/05/18 06:37:23;;;;;;;8.48;3.25;;;16.50;99.90;;;;;;5075803;22;20087;-76
2023/05/18 06:39:49;;;;;;;10.35;3.83;;;17.60;99.90;;;;;;5084647;22;20079;-75
2023/05/18 06:42:14;;;;;;;7.55;2.92;;;16.90;99.90;;;;;;5076012;22;20049;-78
2023/05/18 06:47:16;;;;;;;9.70;3.60;;;17.40;99.90;;;;;;4984034;22;20103;-77
2023/05/18 06:52:16;;;;;;;7.35;3.22;;;18.80;99.90;;;;;;4551057;22;20060;-74
2023/05/18 06:54:42;;;;;;;11.90;3.55;;;18.90;35.50;;;;;;5107451;22;20103;-67
2023/05/18 06:57:08;;;;;;;9.48;3.40;;;18.40;41.10;;;;;;5060329;22;20065;-68
2023/05/18 06:59:34;;;;;;;8.43;3.17;;;18.80;29.80;;;;;;5142947;22;20053;-77
2023/05/18 07:01:59;;;;;;;9.57;3.92;;;18.50;1.00;;;;;;5053185;28;20044;-76
2023/05/18 07:04:25;;;;;;;16.80;3.63;;;18.60;1.00;;;;;;5075795;22;20049;-77
2023/05/18 07:06:54;;;;;;;7.22;3.55;;;19.20;1.00;;;;;;5101055;22;20568;-67
2023/05/18 07:09:21;;;;;;;8.98;3.65;;;18.90;1.00;;;;;;5099445;22;20105;-74
2023/05/18 07:11:48;;;;;;;9.40;3.78;;;19.40;1.00;;;;;;5107107;22;20056;-65
2023/05/18 07:14:13;;;;;;;7.75;2.75;;;19.80;1.00;;;;;;5060747;22;20083;-65
2023/05/18 07:16:39;;;;;;;7.70;3.00;;;18.20;1.00;;;;;;5078798;22;20085;-67
2023/05/18 07:19:04;;;;;;;8.35;3.33;;;18.80;1.00;;;;;;5013831;28;20077;-67
2023/05/18 07:21:31;;;;;;;7.80;3.22;;;18.30;1.00;;;;;;5105921;23;20052;-80
2023/05/18 07:24:06;;;;;;;8.43;2.72;;;18.90;1.00;;;;;;5087512;23;21539;-74
2023/05/18 07:26:32;;;;;;;11.77;3.60;;;19.80;1.00;;;;;;5102367;23;20060;-77
2023/05/18 07:28:57;;;;;;;9.48;3.30;;;19.50;1.00;;;;;;5066972;23;20139;-80
2023/05/18 07:31:23;;;;;;;10.57;3.25;;;19.50;1.00;;;;;;5105853;23;20427;-73
2023/05/18 07:36:17;;;;;;;9.98;3.10;;;20.50;1.00;;;;;;5081499;22;20098;-77
2023/05/18 07:38:43;;;;;;;11.50;3.55;;;19.50;1.00;;;;;;5109256;22;20037;-67
2023/05/18 07:41:09;;;;;;;9.48;3.75;;;19.40;1.00;;;;;;5108406;23;20092;-77
2023/05/18 07:43:35;;;;;;;13.10;4.07;;;20.00;1.00;;;;;;5099701;23;20049;-64
2023/05/18 07:46:00;;;;;;;6.20;2.83;;;19.30;1.00;;;;;;5077117;28;20442;-63
2023/05/18 07:48:26;;;;;;;10.40;3.53;;;18.80;1.00;;;;;;5126190;23;20091;-76
2023/05/18 07:53:48;;;;;;;12.27;3.90;;;20.40;1.00;;;;;;5015792;28;20050;-75
2023/05/18 07:56:13;;;;;;;10.00;3.53;;;18.80;1.00;;;;;;5055639;23;20375;-76
2023/05/18 07:58:39;;;;;;;11.50;3.15;;;19.20;1.00;;;;;;5051963;23;20017;-76
2023/05/18 08:01:05;;;;;;;10.57;3.20;;;19.60;1.00;;;;;;5056655;23;20580;-73
2023/05/18 08:06:11;;;;;;;10.10;3.47;;;20.30;1.00;;;;;;5045703;23;20041;-76
2023/05/18 08:08:36;;;;;;;9.63;3.25;;;20.30;1.00;;;;;;5109139;23;20065;31
2023/05/18 08:11:03;;;;;;;8.32;3.15;;;20.40;1.00;;;;;;4976771;28;20051;-76
2023/05/18 08:13:29;;;;;;;13.43;3.78;;;20.10;1.00;;;;;;5032272;23;20036;-77
2023/05/18 08:15:54;;;;;;;10.25;3.55;;;20.20;1.00;;;;;;5036975;28;20029;-77
2023/05/18 08:22:19;;;;;;;11.93;4.10;;;19.90;1.00;;;;;;5096459;23;20056;-77
2023/05/18 08:25:10;;;;;;;8.30;3.27;;;18.40;1.00;;;;;;5014368;28;20077;-64
2023/05/18 08:27:35;;;;;;;13.00;3.80;;;19.80;1.00;;;;;;5075106;23;20093;-77
2023/05/18 08:32:36;;;;;;;12.93;3.60;;;19.10;1.00;;;;;;4320299;23;20057;-73
2023/05/18 08:35:07;;;;;;;10.55;3.92;;;18.60;1.00;;;;;;5096121;23;20460;-67
2023/05/18 08:37:33;;;;;;;12.13;4.20;;;18.70;1.00;;;;;;5035955;28;20053;-68
2023/05/18 08:39:59;;;;;;;9.05;3.53;;;20.00;1.00;;;;;;5094383;23;20049;-69
2023/05/18 08:45:38;;;;;;;7.88;3.53;;;20.30;1.00;;;;;;3743947;23;20057;-77
2023/05/18 08:48:04;;;;;;;10.60;3.50;;;20.00;1.00;;;;;;5139420;23;20076;-76
2023/05/18 08:50:31;;;;;;;7.45;3.55;;;20.30;1.00;;;;;;5035450;28;20167;-76
2023/05/18 08:53:00;;;;;;;12.23;3.90;;;19.90;1.00;;;;;;5080237;23;20112;-64
2023/05/18 08:57:58;;;;;;;11.65;3.65;;;19.70;1.00;;;;;;5051169;23;20060;-65
2023/05/18 09:00:24;;;;;;;8.50;3.22;;;20.10;1.00;;;;;;5073027;23;20049;-77
2023/05/18 09:02:50;;;;;;;7.90;3.17;;;20.10;1.00;;;;;;5042884;23;20588;-77
2023/05/18 09:05:17;;;;;;;10.70;3.90;;;20.50;1.00;;;;;;5120534;23;20090;-73
2023/05/18 09:10:18;;;;;;;12.32;4.32;;;20.20;1.00;;;;;;5020904;23;20065;-67
2023/05/18 09:15:15;;;;;;;7.72;3.70;;;20.20;1.00;;;;;;5052800;28;20045;-64
2023/05/18 09:20:09;;;;;;;10.95;3.72;;;20.60;1.00;;;;;;4975245;28;20034;-63
2023/05/18 09:22:35;;;;;;;11.18;3.78;;;21.00;1.00;;;;;;5053461;23;20049;-73
2023/05/18 09:27:37;;;;;;;10.93;3.97;;;21.10;1.00;;;;;;4751043;23;20562;-64
2023/05/18 09:30:04;;;;;;;12.98;4.00;;;19.70;1.00;;;;;;5118555;23;20054;-64
2023/05/18 09:32:35;;;;;;;10.82;3.63;;;19.10;1.00;;;;;;5035187;28;20033;-64
2023/05/18 09:41:38;;;;;;;9.27;3.85;;;18.30;1.00;;;;;;4361344;23;20089;-75
2023/05/18 09:44:08;;;;;;;7.22;3.85;;;18.70;1.00;;;;;;5080105;23;20076;-68
2023/05/18 09:46:36;;;;;;;10.88;3.67;;;18.70;1.00;;;;;;5072386;23;20517;-81
2023/05/18 09:49:02;;;;;;;7.82;3.60;;;20.00;1.00;;;;;;5085829;23;20056;-74
2023/05/18 09:53:57;;;;;;;11.25;3.85;;;19.90;1.00;;;;;;5028400;23;20044;-77
2023/05/18 09:56:24;;;;;;;9.73;3.80;;;20.20;1.00;;;;;;5079185;23;20036;-69
2023/05/18 09:58:52;;;;;;;10.27;3.92;;;20.60;1.00;;;;;;5072406;23;20056;-74
2023/05/18 10:01:18;;;;;;;9.75;3.65;;;20.20;1.00;;;;;;5070797;23;20037;-77
2023/05/18 10:03:47;;;;;;;11.10;4.20;;;20.20;1.00;;;;;;5100228;23;20035;-74
2023/05/18 10:06:13;;;;;;;9.77;4.25;;;20.20;1.00;;;;;;5041677;23;20152;-74
2023/05/18 10:08:39;;;;;;;10.52;4.05;;;19.80;1.00;;;;;;5079385;23;20413;-68
2023/05/18 10:13:43;;;;;;;9.30;3.70;;;20.10;1.00;;;;;;5067667;23;20518;-73
2023/05/18 10:18:38;;;;;;;10.77;4.03;;;19.70;1.00;;;;;;5049933;23;20053;-73
2023/05/18 10:21:07;;;;;;;11.98;3.90;;;20.70;1.00;;;;;;5079502;23;20543;-67
2023/05/18 10:23:34;;;;;;;8.23;3.88;;;20.00;1.00;;;;;;5078789;23;21555;-75
2023/05/18 10:26:04;;;;;;;11.35;3.95;;;20.10;1.00;;;;;;5054983;23;20038;-78
2023/05/18 10:28:36;;;;;;;12.13;3.83;;;19.60;1.00;;;;;;5127003;23;20037;-67
2023/05/18 10:31:05;;;;;;;10.17;4.20;;;20.10;1.00;;;;;;5074442;23;20111;-74
2023/05/18 10:33:31;;;;;;;9.77;4.07;;;20.00;1.00;;;;;;5035898;23;20035;-65
2023/05/18 10:38:30;;;;;;;10.20;4.13;;;20.50;1.00;;;;;;5027491;23;20103;-73
2023/05/18 10:40:59;;;;;;;7.93;3.97;;;19.20;1.00;;;;;;5054966;23;20498;-76
2023/05/18 10:43:26;;;;;;;13.25;4.22;;;18.90;1.00;;;;;;5062843;23;20072;-78
2023/05/18 10:45:54;;;;;;;10.50;4.28;;;18.80;1.00;;;;;;5054654;23;20057;-76
2023/05/18 10:53:18;;;;;;;15.75;4.97;;;18.50;1.00;;;;;;5041959;23;20062;-69
2023/05/18 10:55:44;;;;;;;10.45;4.20;;;18.20;99.90;;;;;;5112703;23;20048;-75
2023/05/18 10:58:13;;;;;;;8.88;4.35;;;18.00;99.90;;;;;;5053254;23;20107;-78
2023/05/18 11:00:41;;;;;;;11.10;4.47;;;17.10;1.00;;;;;;5066590;23;20096;-80
2023/05/18 11:03:12;;;;;;;13.13;4.93;;;17.30;1.00;;;;;;5040249;23;20025;-74
2023/05/18 11:05:40;;;;;;;13.18;4.80;;;17.70;1.00;;;;;;5040952;23;20042;-73
2023/05/18 11:08:06;;;;;;;10.68;4.43;;;17.70;99.90;;;;;;5086607;23;20097;-65
2023/05/18 11:10:42;;;;;;;13.65;4.38;;;17.10;99.90;;;;;;5057018;23;20041;-77
2023/05/18 11:13:10;;;;;;;8.25;3.78;;;17.40;1.00;;;;;;5033101;28;20029;-77
2023/05/18 11:19:06;;;;;;;10.43;4.40;;;18.20;99.90;;;;;;5112157;27;20097;-78
2023/05/18 11:24:23;;;;;;;11.20;4.32;;;18.10;1.00;;;;;;5143798;22;20403;31
2023/05/18 11:29:34;;;;;;;12.73;4.85;;;17.70;99.90;;;;;;4949399;22;20043;-79
2023/05/18 11:32:00;;;;;;;11.07;4.78;;;17.70;99.90;;;;;;5227577;22;20050;-74
2023/05/18 11:34:49;;;;;;;11.65;4.60;;;17.90;1.00;;;;;;5155513;22;20035;-78
2023/05/18 11:37:16;;;;;;;12.07;4.18;;;17.70;1.00;;;;;;5128276;22;20046;-75
2023/05/18 11:39:52;;;;;;;11.00;4.25;;;17.40;1.00;;;;;;5146394;22;20042;-68
2023/05/18 11:42:19;;;;;;;11.75;4.03;;;17.70;1.00;;;;;;5131482;28;20032;-67
2023/05/18 11:44:55;;;;;;;8.73;4.15;;;17.80;99.90;;;;;;5187999;22;20044;-78
2023/05/18 11:50:16;;;;;;;10.50;3.80;;;17.50;99.90;;;;;;5112673;22;20048;-75
2023/05/18 11:52:52;;;;;;;12.88;4.55;;;18.00;99.90;;;;;;5164051;22;20047;-77
2023/05/18 11:58:00;;;;;;;11.48;4.65;;;17.30;99.90;;;;;;5091853;22;20051;-64
2023/05/18 12:00:26;;;;;;;13.30;5.10;;;17.40;1.00;;;;;;5134379;22;20048;-78
2023/05/18 12:05:31;;;;;;;12.85;4.80;;;17.60;1.00;;;;;;4469702;22;20044;-78
2023/05/18 12:13:15;;;;;;;10.95;3.90;;;17.80;99.90;;;;;;5127670;22;20044;-76
2023/05/18 12:18:35;;;;;;;11.23;4.60;;;18.30;99.90;;;;;;5091788;22;20052;-78
2023/05/18 12:23:37;;;;;;;9.57;4.15;;;17.20;99.90;;;;;;5068370;28;20068;-78
2023/05/18 12:26:02;;;;;;;9.43;4.38;;;17.10;99.90;;;;;;5158469;22;20047;-65
2023/05/18 12:38:41;;;;;;;9.13;4.47;;;17.70;99.90;;;;;;5123528;22;20071;-74
2023/05/18 12:41:07;;;;;;;12.50;4.35;;;17.60;99.90;;;;;;5075613;28;20040;-74
2023/05/18 12:43:35;;;;;;;11.85;4.60;;;17.70;99.90;;;;;;5123649;22;20052;-69
2023/05/18 12:48:45;;;;;;;16.17;4.80;;;17.70;99.90;;;;;;4306582;22;20049;-64
2023/05/18 12:53:42;;;;;;;8.55;4.28;;;17.90;99.90;;;;;;5054199;28;20107;-67
2023/05/18 12:56:10;;;;;;;12.75;4.18;;;18.00;99.90;;;;;;5112772;22;20064;-76
2023/05/18 12:58:36;;;;;;;10.18;4.15;;;17.80;99.90;;;;;;5075748;28;20122;-76
2023/05/18 13:01:10;;;;;;;9.75;3.67;;;18.00;99.90;;;;;;5106617;22;20049;-78
2023/05/18 13:03:39;;;;;;;13.25;4.20;;;18.20;99.90;;;;;;5190466;22;20498;-67
2023/05/18 13:06:07;;;;;;;8.88;3.63;;;17.80;99.90;;;;;;5082989;22;20056;-67
2023/05/18 13:08:34;;;;;;;11.20;3.90;;;17.70;99.90;;;;;;5125991;22;20084;-93
2023/05/18 13:16:44;;;;;;;12.38;4.50;;;17.70;99.90;;;;;;5126273;22;20154;-76
2023/05/18 13:19:14;;;;;;;8.60;4.05;;;17.80;99.90;;;;;;5106340;22;20049;-79
2023/05/18 13:21:41;;;;;;;10.95;4.53;;;17.60;99.90;;;;;;5122843;22;20043;-90
2023/05/18 13:24:06;;;;;;;12.38;4.50;;;17.80;99.90;;;;;;5157068;22;20049;-73
2023/05/18 13:26:32;;;;;;;11.32;3.97;;;17.80;99.90;;;;;;5075447;28;20040;-73
2023/05/18 13:34:13;;;;;;;10.38;4.32;;;17.60;99.90;;;;;;5121622;22;20064;-63
2023/05/18 13:36:38;;;;;;;12.30;4.40;;;17.40;99.90;;;;;;5113379;22;20057;-74
2023/05/18 13:39:06;;;;;;;9.38;4.07;;;17.60;99.90;;;;;;5088924;22;20131;-64
2023/05/18 13:43:59;;;;;;;11.65;4.22;;;17.70;99.90;;;;;;5053463;28;20052;-74
2023/05/18 13:46:25;;;;;;;9.32;4.18;;;18.10;99.90;;;;;;5163654;22;20049;-77
2023/05/18 13:52:01;;;;;;;11.55;4.30;;;17.60;99.90;;;;;;5038185;22;20111;-64
2023/05/18 13:54:27;;;;;;;10.63;4.10;;;17.10;99.90;;;;;;5125515;22;20049;-64
2023/05/18 13:56:53;;;;;;;10.02;4.45;;;17.40;99.90;;;;;;5054750;28;20025;-64
2023/05/18 13:59:20;;;;;;;10.20;4.22;;;17.00;99.90;;;;;;5118759;22;20083;-79
2023/05/18 14:01:48;;;;;;;10.65;4.60;;;17.40;99.90;;;;;;5093752;22;20020;-67
2023/05/18 14:04:13;;;;;;;10.63;3.88;;;17.40;99.90;;;;;;5108397;22;20153;-77
2023/05/18 14:09:09;;;;;;;17.30;5.25;;;17.40;99.90;;;;;;5060352;22;20041;-68
2023/05/18 14:11:37;;;;;;;11.50;4.15;;;17.30;99.90;;;;;;5127628;22;20055;-82
2023/05/18 14:14:11;;;;;;;6.72;3.60;;;17.30;99.90;;;;;;5061278;22;20073;-82
2023/05/18 14:16:36;;;;;;;9.38;4.22;;;17.30;99.90;;;;;;5124394;22;20423;-74
2023/05/18 14:21:37;;;;;;;10.57;3.83;;;17.40;99.90;;;;;;5085252;22;20061;-65
2023/05/18 14:24:06;;;;;;;11.45;3.67;;;17.60;99.90;;;;;;5156416;23;20056;-78
2023/05/18 14:26:33;;;;;;;10.00;3.80;;;17.70;99.90;;;;;;5070401;22;20045;-76
2023/05/18 14:31:26;;;;;;;9.90;4.18;;;18.00;99.90;;;;;;5047565;22;20048;-73
2023/05/18 14:33:52;;;;;;;9.02;3.35;;;17.70;99.90;;;;;;5101843;22;20106;-63
2023/05/18 14:36:17;;;;;;;11.73;3.85;;;17.70;99.90;;;;;;5075239;22;20028;-78
2023/05/18 14:38:45;;;;;;;10.32;3.85;;;17.50;99.90;;;;;;5076230;22;20080;-67
2023/05/18 14:41:10;;;;;;;15.00;4.43;;;17.70;99.90;;;;;;5053655;28;20108;-67
2023/05/18 14:43:36;;;;;;;11.38;3.38;;;17.70;99.90;;;;;;5145173;22;20068;-77
2023/05/18 14:48:34;;;;;;;9.85;3.50;;;18.10;99.90;;;;;;5090817;22;20092;-75
2023/05/18 14:50:59;;;;;;;9.30;3.90;;;17.70;99.90;;;;;;5092735;22;21121;-82
2023/05/18 14:53:25;;;;;;;10.88;4.00;;;17.70;99.90;;;;;;5061012;23;20124;-82
2023/05/18 14:55:51;;;;;;;15.23;4.07;;;17.50;99.90;;;;;;5124527;22;20090;-88
2023/05/18 14:58:17;;;;;;;8.18;3.50;;;17.80;99.90;;;;;;5054279;28;20104;-89
2023/05/18 15:00:50;;;;;;;10.93;3.30;;;17.80;99.90;;;;;;5164874;22;20058;-77
2023/05/18 15:03:16;;;;;;;11.63;4.10;;;17.60;99.90;;;;;;5050992;22;20045;-63
2023/05/18 15:05:44;;;;;;;9.18;3.70;;;17.60;99.90;;;;;;5122032;22;20053;-79
2023/05/18 15:08:09;;;;;;;14.63;4.30;;;17.60;99.90;;;;;;5091266;22;20025;-66
2023/05/18 15:10:35;;;;;;;13.05;3.95;;;17.60;99.90;;;;;;5099839;22;20048;-74
2023/05/18 15:13:01;;;;;;;10.20;4.15;;;17.80;99.90;;;;;;5053521;28;20025;-73
2023/05/18 15:15:26;;;;;;;13.15;4.10;;;17.90;99.90;;;;;;5183839;22;20048;-74
2023/05/18 15:17:53;;;;;;;9.98;3.20;;;18.00;99.90;;;;;;5033909;28;20030;-73
2023/05/18 15:25:25;;;;;;;11.70;3.95;;;17.80;99.90;;;;;;5054785;22;20057;-64
2023/05/18 15:27:52;;;;;;;10.38;4.13;;;17.90;99.90;;;;;;5099053;22;20044;-78
2023/05/18 15:33:01;;;;;;;11.60;3.88;;;17.40;99.90;;;;;;2525957;22;20052;-73
2023/05/18 15:38:06;;;;;;;8.00;3.58;;;17.80;99.90;;;;;;5103182;22;20045;-73
2023/05/18 15:40:32;;;;;;;11.55;3.80;;;18.00;99.90;;;;;;5052895;28;20046;-72
2023/05/18 15:42:59;;;;;;;7.60;3.53;;;18.00;99.90;;;;;;5099331;22;20057;-67
2023/05/18 15:50:45;;;;;;;8.70;3.70;;;17.40;99.90;;;;;;5054092;22;20053;-68
2023/05/18 15:53:14;;;;;;;9.75;4.03;;;17.60;99.90;;;;;;5097852;22;20061;-77
2023/05/18 15:55:40;;;;;;;7.65;3.28;;;17.50;99.90;;;;;;5066171;22;20122;-70
2023/05/18 15:58:05;;;;;;;11.02;3.22;;;17.50;99.90;;;;;;5108349;22;20053;-78
2023/05/18 16:03:05;;;;;;;9.80;3.60;;;17.30;99.90;;;;;;5072517;22;20550;-76
2023/05/18 16:08:11;;;;;;;8.80;4.00;;;17.20;99.90;;;;;;4760261;22;20140;-70
2023/05/18 16:10:36;;;;;;;10.13;3.58;;;17.20;99.90;;;;;;5062228;22;20107;-68
2023/05/18 16:13:04;;;;;;;10.38;3.42;;;17.30;99.90;;;;;;5056607;28;20021;-68
2023/05/18 16:15:33;;;;;;;10.65;3.55;;;17.10;99.90;;;;;;5117615;22;20053;-78
2023/05/18 16:20:33;;;;;;;7.30;3.53;;;16.80;99.90;;;;;;4895277;22;20049;-74
2023/05/18 16:25:34;;;;;;;8.77;3.60;;;16.60;99.90;;;;;;4322211;22;20053;-65
2023/05/18 16:28:00;;;;;;;9.82;3.53;;;16.60;99.90;;;;;;5090440;22;20056;-66
2023/05/18 16:30:29;;;;;;;9.38;3.53;;;16.70;99.90;;;;;;5056130;28;20485;-66
2023/05/18 16:32:54;;;;;;;12.10;3.67;;;16.80;99.90;;;;;;5101736;22;20057;-76
2023/05/18 16:35:20;;;;;;;9.75;3.40;;;16.90;99.90;;;;;;5093568;22;20032;-67
2023/05/18 16:37:45;;;;;;;10.75;3.95;;;16.90;99.90;;;;;;5092820;22;20053;-74
2023/05/18 16:40:45;;;;;;;11.10;3.75;;;16.60;99.90;;;;;;5100643;22;20053;31
2023/05/18 16:43:12;;;;;;;8.80;3.53;;;16.50;99.90;;;;;;5057005;22;20045;-73
2023/05/18 16:45:38;;;;;;;7.25;3.75;;;16.40;99.90;;;;;;5127443;22;20280;-64
2023/05/18 16:48:04;;;;;;;9.50;3.47;;;16.60;1.00;;;;;;5055772;28;20068;-65
2023/05/18 16:50:30;;;;;;;10.68;3.63;;;16.50;1.00;;;;;;5080699;22;20093;-80
2023/05/18 16:52:55;;;;;;;10.57;3.40;;;16.50;1.00;;;;;;5101143;22;20052;-63
2023/05/18 16:55:22;;;;;;;15.80;4.32;;;16.60;1.00;;;;;;5101324;22;20055;-72
2023/05/18 16:57:48;;;;;;;12.40;3.85;;;16.40;1.00;;;;;;5126668;22;20091;-65
2023/05/18 17:02:53;;;;;;;10.38;4.00;;;16.00;1.00;;;;;;4285785;22;20060;-66
2023/05/18 17:07:50;;;;;;;12.07;4.13;;;15.90;1.00;;;;;;5077249;22;20041;-77
2023/05/18 17:10:16;;;;;;;9.25;3.45;;;16.00;1.00;;;;;;5085462;22;20128;-75
2023/05/18 17:12:41;;;;;;;13.73;4.32;;;15.90;1.00;;;;;;5078415;22;20469;-76
2023/05/18 17:15:11;;;;;;;12.75;4.40;;;15.80;1.00;;;;;;5069417;22;20045;-78